Weather History for K5H4 - February, 2013

Change the Weather History Date:

Monday, February 18, 2013

  Actual Average (KRUG) Record (KRUG)
Temperature  
Mean Temperature 6 °F -  
Max Temperature 19 °F 22 °F 44 °F (1954)
Min Temperature -9 °F 3 °F -28 °F (1966)
Degree Days  
Heating Degree Days 59    
Moisture  
Dew Point 3 °F    
Average Humidity 85    
Maximum Humidity 100    
Minimum Humidity 71    
Precipitation  
Precipitation 5.45 in - - ()
Sea Level Pressure  
Sea Level Pressure 29.96 in    
Wind  
Wind Speed 22 mph (NNW)    
Max Wind Speed 30 mph    
Max Gust Speed 37 mph    
Visibility 4 miles    
Events Rain , Snow    
Averages and records for this station are not official NWS values.
T = Trace of Precipitation, MM = Missing Value Source: NWS Daily Summary

Daily Weather History Graph

Daily Weather History Graph

Search for Another Location

Airport or City:

Trip Planner

Search our weather history database for the weather conditions in past years. The results will help you decide how hot, cold, wet, or windy it might be!

Date:

Astronomy

Feb. 18, 2013 Rise Set
Actual Time 7:40 AM CST 6:07 PM CST
Civil Twilight 7:08 AM CST 6:39 PM CST
Nautical Twilight 6:32 AM CST 7:15 PM CST
Astronomical Twilight 5:56 AM CST 7:51 PM CST
Moon 11:42 AM CST (2/18) 2:33 AM CST (2/18)
Length of Visible Light 11h 31m
Length of Day
10h 27m
First Quarter, 58% of the Moon is Illuminated
Feb 18
First Quarter
Feb 25
Full
Mar 4
Last Quarter
Mar 11
New
Mar 19
First Quarter

Hourly Weather History & Observations

Time (CST) Temp. Windchill Dew Point Humidity Pressure Visibility Wind Dir Wind Speed Gust Speed Precip Events Conditions
12:15 AM 19.4 °F 2.8 °F 19.4 °F 100% 29.59 in 0.5 mi North 21.9 mph 31.1 mph 0.31 in Snow Snow
12:55 AM 19.4 °F 2.8 °F 19.4 °F 100% 29.61 in 0.5 mi North 21.9 mph 29.9 mph 1.75 in Snow Snow
1:15 AM 19.4 °F 1.8 °F 17.6 °F 93% 29.63 in 0.8 mi North 25.3 mph 29.9 mph 0.16 in Snow Light Snow
1:35 AM 17.6 °F 0.5 °F 17.6 °F 100% 29.64 in 1.2 mi NNW 21.9 mph - 0.38 in Snow Light Snow
1:55 AM 17.6 °F 0.5 °F 17.6 °F 100% 29.66 in 1.0 mi NNW 21.9 mph 28.8 mph 0.55 in Snow Light Snow
2:15 AM 17.6 °F -0.3 °F 15.8 °F 93% 29.67 in 0.8 mi NNW 24.2 mph 31.1 mph 0.08 in Snow Light Snow
2:35 AM 17.6 °F -0.6 °F 15.8 °F 93% 29.68 in 1.0 mi North 25.3 mph 33.4 mph 0.17 in Snow Light Snow
2:55 AM 17.6 °F 0.1 °F 15.8 °F 93% 29.70 in 1.0 mi NNW 23.0 mph 28.8 mph 0.27 in Snow Light Snow
3:15 AM 17.6 °F 0.1 °F 15.8 °F 93% 29.71 in 1.0 mi North 23.0 mph 27.6 mph 0.07 in Snow Light Snow
3:35 AM 15.8 °F -2.3 °F 15.8 °F 100% 29.72 in 1.5 mi NNW 23.0 mph 26.5 mph 0.15 in Snow Light Snow
3:55 AM 15.8 °F -2.3 °F 14.0 °F 93% 29.73 in 1.0 mi North 23.0 mph 29.9 mph 0.29 in Snow Light Snow
4:15 AM 15.8 °F -1.5 °F 14.0 °F 93% 29.75 in 0.5 mi NNW 20.7 mph - 0.72 in Snow Snow
4:35 AM 15.8 °F -1.1 °F 14.0 °F 93% 29.75 in 0.8 mi NNW 19.6 mph - 1.43 in Snow Light Snow
4:55 AM 14.0 °F -6.2 °F 12.2 °F 93% 29.76 in 1.2 mi NNW 27.6 mph 32.2 mph 1.86 in Snow Light Snow
5:15 AM 14.0 °F -4.7 °F 10.4 °F 86% 29.79 in 1.2 mi NNW 23.0 mph 29.9 mph 0.12 in Snow Light Snow
5:35 AM 14.0 °F -4.7 °F 10.4 °F 86% 29.80 in 1.2 mi NNW 23.0 mph 29.9 mph 0.30 in Snow Light Snow
5:55 AM 12.2 °F -6.7 °F 10.4 °F 92% 29.81 in 1.8 mi NNW 21.9 mph 27.6 mph 0.43 in Snow Light Snow
6:15 AM 12.2 °F -7.1 °F 8.6 °F 85% 29.83 in 1.5 mi NNW 23.0 mph 27.6 mph 0.07 in Snow Light Snow
6:35 AM 10.4 °F -9.1 °F 8.6 °F 92% 29.84 in 3.0 mi NNW 21.9 mph - 0.15 in Snow Light Snow
6:55 AM 10.4 °F -8.6 °F 6.8 °F 85% 29.85 in 4.0 mi NNW 20.7 mph 26.5 mph 0.20 in Snow Light Snow
7:15 AM 8.6 °F -11.4 °F 6.8 °F 92% 29.85 in 3.0 mi NNW 21.9 mph - 0.04 in Snow Light Snow
7:35 AM 8.6 °F -11.0 °F 5.0 °F 85% 29.86 in 2.5 mi NNW 20.7 mph 27.6 mph 0.06 in Snow Light Snow
7:55 AM 6.8 °F -13.4 °F 5.0 °F 92% 29.88 in 2.5 mi NNW 20.7 mph 28.8 mph 0.06 in Snow Light Snow
8:15 AM 6.8 °F -15.1 °F 3.2 °F 85% 29.89 in 3.0 mi NNW 25.3 mph 28.8 mph N/A Snow Light Snow
8:35 AM 6.8 °F -14.7 °F 3.2 °F 85% 29.89 in 2.0 mi NNW 24.2 mph - N/A Rain Light Freezing Rain
8:55 AM 6.8 °F -14.7 °F 3.2 °F 85% 29.90 in 3.0 mi NNW 24.2 mph 31.1 mph 0.01 in Rain Light Freezing Rain
9:15 AM 6.8 °F -15.5 °F 5.0 °F 92% 29.91 in 1.5 mi NNW 26.5 mph 34.5 mph N/A Snow Light Snow
9:35 AM 8.6 °F -13.4 °F 5.0 °F 85% 29.92 in 1.0 mi NNW 27.6 mph 33.4 mph N/A Snow Light Snow
9:55 AM 8.6 °F -11.9 °F 5.0 °F 85% 29.93 in 0.8 mi NNW 23.0 mph 31.1 mph N/A Snow Light Snow
10:15 AM 8.6 °F -13.4 °F 5.0 °F 85% 29.94 in 0.8 mi NNW 27.6 mph 32.2 mph N/A Rain Light Freezing Rain
10:35 AM 8.6 °F -12.7 °F 5.0 °F 85% 29.95 in 1.0 mi NNW 25.3 mph 32.2 mph 0.02 in Rain Light Freezing Rain
10:55 AM 8.6 °F -13.1 °F 5.0 °F 85% 29.96 in 0.8 mi NNW 26.5 mph 32.2 mph 0.02 in Snow Light Snow
11:15 AM 6.8 °F -14.7 °F 5.0 °F 92% 29.97 in 0.8 mi NNW 24.2 mph 31.1 mph N/A Snow Light Snow
11:35 AM 6.8 °F -15.1 °F 1.4 °F 79% 29.97 in 1.5 mi NNW 25.3 mph 35.7 mph 0.01 in Rain Light Freezing Rain
11:55 AM 6.8 °F -14.7 °F 3.2 °F 85% 29.97 in 2.0 mi NNW 24.2 mph 31.1 mph 0.01 in Rain Light Freezing Rain
12:15 PM 6.8 °F -14.7 °F 1.4 °F 79% 29.98 in 2.0 mi NNW 24.2 mph 32.2 mph N/A   Haze
12:35 PM 8.6 °F -13.4 °F 3.2 °F 79% 29.98 in 1.2 mi NNW 27.6 mph 34.5 mph N/A Snow Light Snow
12:55 PM 6.8 °F -16.2 °F 3.2 °F 85% 29.98 in 0.8 mi NNW 28.8 mph 36.8 mph N/A Snow Light Snow
1:15 PM 6.8 °F -15.1 °F 3.2 °F 85% 29.99 in 1.0 mi NNW 25.3 mph 35.7 mph N/A Snow Light Snow
1:35 PM 6.8 °F -16.6 °F 1.4 °F 79% 29.99 in 1.8 mi NNW 29.9 mph 35.7 mph N/A   Overcast
1:55 PM 6.8 °F -15.5 °F 1.4 °F 79% 30.00 in 2.5 mi NNW 26.5 mph 32.2 mph N/A Snow Light Snow
2:15 PM 6.8 °F -15.9 °F 1.4 °F 79% 30.01 in 3.0 mi NNW 27.6 mph 32.2 mph N/A Snow Light Snow
2:35 PM 6.8 °F -16.2 °F 1.4 °F 79% 30.01 in 2.5 mi NNW 28.8 mph 32.2 mph N/A Snow Light Snow
2:55 PM 6.8 °F -13.8 °F 1.4 °F 79% 30.03 in 3.0 mi NNW 21.9 mph 26.5 mph N/A   Overcast
3:15 PM 6.8 °F -14.7 °F 1.4 °F 79% 30.03 in 2.0 mi NNW 24.2 mph 31.1 mph N/A Snow Light Snow
3:35 PM 6.8 °F -14.3 °F 1.4 °F 79% 30.04 in 1.2 mi NNW 23.0 mph 29.9 mph N/A Snow Light Snow
3:55 PM 5.0 °F -17.9 °F -0.4 °F 78% 30.06 in 1.8 mi North 26.5 mph 32.2 mph N/A Snow Light Snow
4:15 PM 5.0 °F -17.5 °F -0.4 °F 78% 30.06 in 8.0 mi North 25.3 mph 31.1 mph N/A   Mostly Cloudy
4:35 PM 5.0 °F -16.2 °F -0.4 °F 78% 30.07 in 8.0 mi NNW 21.9 mph 28.8 mph N/A   Overcast
4:55 PM 5.0 °F -17.1 °F -0.4 °F 78% 30.08 in 9.0 mi NNW 24.2 mph 31.1 mph N/A   Overcast
5:15 PM 3.2 °F -19.0 °F -0.4 °F 85% 30.09 in 6.0 mi NNW 23.0 mph 28.8 mph N/A   Overcast
5:35 PM 3.2 °F -15.9 °F -2.2 °F 78% 30.11 in 10.0 mi NNW 16.1 mph - N/A   Overcast
5:55 PM 1.4 °F -19.4 °F -0.4 °F 92% 30.11 in 10.0 mi NNW 18.4 mph - N/A   Overcast
6:15 PM 1.4 °F -20.5 °F -2.2 °F 85% 30.11 in 8.0 mi NNW 20.7 mph 26.5 mph N/A   Overcast
6:35 PM 1.4 °F -21.0 °F -4.0 °F 78% 30.13 in 10.0 mi NW 21.9 mph - N/A   Overcast
6:55 PM -0.4 °F -22.3 °F -4.0 °F 85% 30.13 in 10.0 mi NW 19.6 mph - N/A   Mostly Cloudy
7:15 PM -0.4 °F -22.3 °F -5.8 °F 78% 30.14 in 10.0 mi NW 19.6 mph - N/A   Scattered Clouds
7:35 PM -0.4 °F -21.2 °F -5.8 °F 78% 30.15 in 10.0 mi NW 17.3 mph - N/A   Partly Cloudy
7:55 PM -0.4 °F -21.2 °F -5.8 °F 78% 30.15 in 10.0 mi NNW 17.3 mph - N/A   Clear
8:15 PM -0.4 °F -21.2 °F -5.8 °F 78% 30.16 in 10.0 mi NNW 17.3 mph - N/A   Partly Cloudy
8:35 PM -2.2 °F -22.2 °F -7.6 °F 78% 30.17 in 10.0 mi NNW 15.0 mph - N/A   Clear
8:55 PM -2.2 °F -21.5 °F -7.6 °F 78% 30.17 in 10.0 mi NNW 13.8 mph 20.7 mph N/A   Clear
9:15 PM -4.0 °F -23.0 °F -9.4 °F 78% 30.19 in 10.0 mi NNW 12.7 mph - N/A   Clear
9:35 PM -4.0 °F -22.1 °F -9.4 °F 78% 30.19 in 10.0 mi NW 11.5 mph - N/A   Clear
9:55 PM -4.0 °F -23.7 °F -9.4 °F 78% 30.20 in 10.0 mi NNW 13.8 mph - N/A   Clear
10:15 PM -4.0 °F -24.5 °F -11.2 °F 71% 30.20 in 10.0 mi NNW 15.0 mph - N/A   Clear
10:35 PM -4.0 °F -25.2 °F -11.2 °F 71% 30.21 in 10.0 mi NNW 16.1 mph - N/A   Clear
10:55 PM -5.8 °F -27.5 °F -11.2 °F 77% 30.22 in 10.0 mi NNW 16.1 mph - N/A   Clear
11:15 PM -5.8 °F -26.0 °F -11.2 °F 77% 30.23 in 10.0 mi NNW 13.8 mph - N/A   Clear
11:35 PM -7.6 °F -26.6 °F -13.0 °F 77% 30.24 in 10.0 mi NW 11.5 mph - N/A   Clear
11:55 PM -9.4 °F -28.9 °F -13.0 °F 84% 30.24 in 10.0 mi NNW 11.5 mph - N/A   Clear